sensor_id;sensor_type;location;lat;lon;timestamp;pressure;altitude;pressure_sealevel;temperature;humidity
69127;BME280;56688;50.234;19.292;2023-11-21T00:00:15;97692.30;;;8.98;88.55
69127;BME280;56688;50.234;19.292;2023-11-21T00:02:43;97691.64;;;8.99;88.44
69127;BME280;56688;50.234;19.292;2023-11-21T00:05:14;97693.81;;;8.97;88.31
69127;BME280;56688;50.234;19.292;2023-11-21T00:07:42;97693.95;;;8.95;88.33
69127;BME280;56688;50.234;19.292;2023-11-21T00:10:10;97688.41;;;8.94;88.56
69127;BME280;56688;50.234;19.292;2023-11-21T00:12:38;97689.77;;;8.91;88.52
69127;BME280;56688;50.234;19.292;2023-11-21T00:15:05;97692.10;;;8.91;88.68
69127;BME280;56688;50.234;19.292;2023-11-21T00:17:32;97697.10;;;8.91;88.59
69127;BME280;56688;50.234;19.292;2023-11-21T00:19:59;97699.89;;;8.91;88.34
69127;BME280;56688;50.234;19.292;2023-11-21T00:22:26;97706.00;;;8.92;88.29
69127;BME280;56688;50.234;19.292;2023-11-21T00:24:53;97706.41;;;8.93;88.25
69127;BME280;56688;50.234;19.292;2023-11-21T00:27:20;97708.01;;;8.92;88.17
69127;BME280;56688;50.234;19.292;2023-11-21T00:29:47;97708.50;;;8.92;87.94
69127;BME280;56688;50.234;19.292;2023-11-21T00:32:14;97707.68;;;8.93;87.80
69127;BME280;56688;50.234;19.292;2023-11-21T00:34:41;97702.77;;;8.94;87.58
69127;BME280;56688;50.234;19.292;2023-11-21T00:37:09;97704.89;;;8.94;87.48
69127;BME280;56688;50.234;19.292;2023-11-21T00:39:36;97706.91;;;8.95;87.21
69127;BME280;56688;50.234;19.292;2023-11-21T00:42:03;97709.94;;;8.96;87.26
69127;BME280;56688;50.234;19.292;2023-11-21T00:44:31;97708.63;;;8.95;86.95
69127;BME280;56688;50.234;19.292;2023-11-21T00:46:58;97713.54;;;8.93;86.79
69127;BME280;56688;50.234;19.292;2023-11-21T00:49:25;97706.29;;;8.93;86.92
69127;BME280;56688;50.234;19.292;2023-11-21T00:51:52;97706.20;;;8.96;87.21
69127;BME280;56688;50.234;19.292;2023-11-21T00:54:19;97708.13;;;8.96;86.99
69127;BME280;56688;50.234;19.292;2023-11-21T00:56:46;97707.99;;;8.98;86.69
69127;BME280;56688;50.234;19.292;2023-11-21T00:59:15;97705.36;;;8.97;86.54
69127;BME280;56688;50.234;19.292;2023-11-21T01:01:41;97702.06;;;8.94;86.35
69127;BME280;56688;50.234;19.292;2023-11-21T01:04:08;97703.66;;;8.93;86.37
69127;BME280;56688;50.234;19.292;2023-11-21T01:06:35;97705.17;;;8.90;86.53
69127;BME280;56688;50.234;19.292;2023-11-21T01:09:02;97702.48;;;8.92;86.85
69127;BME280;56688;50.234;19.292;2023-11-21T01:11:35;97703.36;;;8.89;86.71
69127;BME280;56688;50.234;19.292;2023-11-21T01:14:04;97703.62;;;8.87;86.68
69127;BME280;56688;50.234;19.292;2023-11-21T01:16:31;97708.46;;;8.84;86.88
69127;BME280;56688;50.234;19.292;2023-11-21T01:19:00;97703.84;;;8.81;87.11
69127;BME280;56688;50.234;19.292;2023-11-21T01:21:28;97703.86;;;8.80;87.22
69127;BME280;56688;50.234;19.292;2023-11-21T01:23:56;97698.02;;;8.80;87.49
69127;BME280;56688;50.234;19.292;2023-11-21T01:26:23;97696.73;;;8.77;87.61
69127;BME280;56688;50.234;19.292;2023-11-21T01:28:50;97697.83;;;8.74;87.69
69127;BME280;56688;50.234;19.292;2023-11-21T01:31:17;97699.64;;;8.72;87.78
69127;BME280;56688;50.234;19.292;2023-11-21T01:33:45;97700.14;;;8.71;87.81
69127;BME280;56688;50.234;19.292;2023-11-21T01:36:12;97704.11;;;8.72;87.88
69127;BME280;56688;50.234;19.292;2023-11-21T01:38:39;97702.95;;;8.74;87.96
69127;BME280;56688;50.234;19.292;2023-11-21T01:41:06;97704.44;;;8.78;88.02
69127;BME280;56688;50.234;19.292;2023-11-21T01:43:33;97709.81;;;8.80;87.67
69127;BME280;56688;50.234;19.292;2023-11-21T01:46:00;97712.67;;;8.79;87.51
69127;BME280;56688;50.234;19.292;2023-11-21T01:48:27;97718.45;;;8.78;87.18
69127;BME280;56688;50.234;19.292;2023-11-21T01:50:55;97719.23;;;8.78;87.28
69127;BME280;56688;50.234;19.292;2023-11-21T01:53:24;97718.83;;;8.79;87.56
69127;BME280;56688;50.234;19.292;2023-11-21T01:55:53;97715.84;;;8.79;87.40
69127;BME280;56688;50.234;19.292;2023-11-21T01:58:25;97718.52;;;8.77;87.47
69127;BME280;56688;50.234;19.292;2023-11-21T02:00:52;97719.73;;;8.75;87.47
69127;BME280;56688;50.234;19.292;2023-11-21T02:03:21;97720.09;;;8.72;87.70
69127;BME280;56688;50.234;19.292;2023-11-21T02:05:49;97719.52;;;8.71;87.89
69127;BME280;56688;50.234;19.292;2023-11-21T02:08:16;97718.77;;;8.70;87.99
69127;BME280;56688;50.234;19.292;2023-11-21T02:10:43;97723.16;;;8.69;87.77
69127;BME280;56688;50.234;19.292;2023-11-21T02:13:10;97723.77;;;8.69;87.79
69127;BME280;56688;50.234;19.292;2023-11-21T02:15:37;97725.61;;;8.68;87.70
69127;BME280;56688;50.234;19.292;2023-11-21T02:18:05;97720.55;;;8.66;87.65
69127;BME280;56688;50.234;19.292;2023-11-21T02:20:33;97724.27;;;8.63;87.37
69127;BME280;56688;50.234;19.292;2023-11-21T02:23:02;97722.54;;;8.64;87.42
69127;BME280;56688;50.234;19.292;2023-11-21T02:25:31;97723.11;;;8.64;87.37
69127;BME280;56688;50.234;19.292;2023-11-21T02:28:02;97723.43;;;8.62;87.19
69127;BME280;56688;50.234;19.292;2023-11-21T02:30:30;97726.51;;;8.61;87.00
69127;BME280;56688;50.234;19.292;2023-11-21T02:33:00;97726.04;;;8.59;87.17
69127;BME280;56688;50.234;19.292;2023-11-21T02:35:28;97729.04;;;8.56;87.19
69127;BME280;56688;50.234;19.292;2023-11-21T02:37:55;97728.42;;;8.53;87.24
69127;BME280;56688;50.234;19.292;2023-11-21T02:40:24;97724.58;;;8.51;87.21
69127;BME280;56688;50.234;19.292;2023-11-21T02:42:53;97731.61;;;8.49;87.54
69127;BME280;56688;50.234;19.292;2023-11-21T02:45:21;97733.04;;;8.47;87.54
69127;BME280;56688;50.234;19.292;2023-11-21T02:47:50;97732.30;;;8.47;87.56
69127;BME280;56688;50.234;19.292;2023-11-21T02:50:17;97732.21;;;8.48;87.67
69127;BME280;56688;50.234;19.292;2023-11-21T02:52:46;97732.67;;;8.49;87.76
69127;BME280;56688;50.234;19.292;2023-11-21T02:55:13;97731.34;;;8.45;87.53
69127;BME280;56688;50.234;19.292;2023-11-21T02:57:40;97729.71;;;8.44;87.52
69127;BME280;56688;50.234;19.292;2023-11-21T03:00:08;97729.80;;;8.42;87.55
69127;BME280;56688;50.234;19.292;2023-11-21T03:02:37;97732.48;;;8.43;87.65
69127;BME280;56688;50.234;19.292;2023-11-21T03:05:07;97733.51;;;8.45;87.76
69127;BME280;56688;50.234;19.292;2023-11-21T03:07:37;97742.16;;;8.47;87.42
69127;BME280;56688;50.234;19.292;2023-11-21T03:10:06;97740.44;;;8.45;87.37
69127;BME280;56688;50.234;19.292;2023-11-21T03:12:37;97747.60;;;8.44;87.53
69127;BME280;56688;50.234;19.292;2023-11-21T03:15:06;97747.66;;;8.43;87.56
69127;BME280;56688;50.234;19.292;2023-11-21T03:17:33;97751.67;;;8.43;87.53
69127;BME280;56688;50.234;19.292;2023-11-21T03:20:02;97750.06;;;8.42;87.57
69127;BME280;56688;50.234;19.292;2023-11-21T03:22:31;97751.85;;;8.42;87.58
69127;BME280;56688;50.234;19.292;2023-11-21T03:24:58;97747.23;;;8.42;87.50
69127;BME280;56688;50.234;19.292;2023-11-21T03:27:25;97745.22;;;8.41;87.40
69127;BME280;56688;50.234;19.292;2023-11-21T03:29:53;97750.59;;;8.41;87.53
69127;BME280;56688;50.234;19.292;2023-11-21T03:32:21;97748.81;;;8.38;87.58
69127;BME280;56688;50.234;19.292;2023-11-21T03:34:57;97750.36;;;8.35;87.62
69127;BME280;56688;50.234;19.292;2023-11-21T03:37:25;97754.26;;;8.32;87.78
69127;BME280;56688;50.234;19.292;2023-11-21T03:39:55;97754.45;;;8.30;87.87
69127;BME280;56688;50.234;19.292;2023-11-21T03:42:24;97754.09;;;8.30;87.96
69127;BME280;56688;50.234;19.292;2023-11-21T03:44:53;97754.41;;;8.32;87.77
69127;BME280;56688;50.234;19.292;2023-11-21T03:47:21;97757.66;;;8.33;87.87
69127;BME280;56688;50.234;19.292;2023-11-21T03:49:48;97756.23;;;8.33;87.88
69127;BME280;56688;50.234;19.292;2023-11-21T03:52:15;97758.36;;;8.32;87.83
69127;BME280;56688;50.234;19.292;2023-11-21T03:54:43;97755.94;;;8.31;87.85
69127;BME280;56688;50.234;19.292;2023-11-21T03:57:10;97758.67;;;8.31;87.87
69127;BME280;56688;50.234;19.292;2023-11-21T03:59:41;97763.14;;;8.31;88.10
69127;BME280;56688;50.234;19.292;2023-11-21T04:02:09;97765.48;;;8.33;88.15
69127;BME280;56688;50.234;19.292;2023-11-21T04:04:36;97766.90;;;8.35;88.08
69127;BME280;56688;50.234;19.292;2023-11-21T04:07:04;97766.36;;;8.34;87.93
69127;BME280;56688;50.234;19.292;2023-11-21T04:09:31;97767.16;;;8.32;88.04
69127;BME280;56688;50.234;19.292;2023-11-21T04:11:58;97771.11;;;8.29;87.88
69127;BME280;56688;50.234;19.292;2023-11-21T04:14:26;97766.95;;;8.27;87.86
69127;BME280;56688;50.234;19.292;2023-11-21T04:16:54;97767.52;;;8.27;88.06
69127;BME280;56688;50.234;19.292;2023-11-21T04:19:21;97763.71;;;8.27;88.05
69127;BME280;56688;50.234;19.292;2023-11-21T04:21:48;97767.59;;;8.29;88.01
69127;BME280;56688;50.234;19.292;2023-11-21T04:24:16;97767.60;;;8.29;87.90
69127;BME280;56688;50.234;19.292;2023-11-21T04:26:43;97766.73;;;8.29;88.02
69127;BME280;56688;50.234;19.292;2023-11-21T04:29:10;97767.67;;;8.27;88.02
69127;BME280;56688;50.234;19.292;2023-11-21T04:31:37;97769.30;;;8.28;88.02
69127;BME280;56688;50.234;19.292;2023-11-21T04:34:05;97771.19;;;8.29;88.07
69127;BME280;56688;50.234;19.292;2023-11-21T04:36:32;97772.02;;;8.27;88.17
69127;BME280;56688;50.234;19.292;2023-11-21T04:38:59;97772.22;;;8.29;88.20
69127;BME280;56688;50.234;19.292;2023-11-21T04:41:25;97775.34;;;8.29;88.25
69127;BME280;56688;50.234;19.292;2023-11-21T04:43:53;97779.18;;;8.27;88.21
69127;BME280;56688;50.234;19.292;2023-11-21T04:46:20;97781.71;;;8.25;88.29
69127;BME280;56688;50.234;19.292;2023-11-21T04:48:47;97785.02;;;8.23;88.47
69127;BME280;56688;50.234;19.292;2023-11-21T04:51:14;97786.69;;;8.22;88.67
69127;BME280;56688;50.234;19.292;2023-11-21T04:53:41;97791.00;;;8.25;88.67
69127;BME280;56688;50.234;19.292;2023-11-21T04:56:08;97786.29;;;8.24;88.74
69127;BME280;56688;50.234;19.292;2023-11-21T04:58:35;97790.71;;;8.24;88.88
69127;BME280;56688;50.234;19.292;2023-11-21T05:01:02;97793.31;;;8.27;88.92
69127;BME280;56688;50.234;19.292;2023-11-21T05:03:34;97795.03;;;8.29;88.71
69127;BME280;56688;50.234;19.292;2023-11-21T05:06:01;97797.77;;;8.29;88.69
69127;BME280;56688;50.234;19.292;2023-11-21T05:08:29;97796.85;;;8.28;88.81
69127;BME280;56688;50.234;19.292;2023-11-21T05:10:56;97798.56;;;8.31;88.80
69127;BME280;56688;50.234;19.292;2023-11-21T05:13:23;97798.73;;;8.35;88.72
69127;BME280;56688;50.234;19.292;2023-11-21T05:15:55;97805.77;;;8.38;88.69
69127;BME280;56688;50.234;19.292;2023-11-21T05:18:24;97805.17;;;8.40;88.52
69127;BME280;56688;50.234;19.292;2023-11-21T05:20:54;97806.76;;;8.39;88.22
69127;BME280;56688;50.234;19.292;2023-11-21T05:23:21;97810.38;;;8.34;88.31
69127;BME280;56688;50.234;19.292;2023-11-21T05:25:48;97807.48;;;8.32;88.19
69127;BME280;56688;50.234;19.292;2023-11-21T05:28:15;97810.38;;;8.34;88.26
69127;BME280;56688;50.234;19.292;2023-11-21T05:30:42;97816.04;;;8.36;88.25
69127;BME280;56688;50.234;19.292;2023-11-21T05:33:09;97817.88;;;8.36;88.14
69127;BME280;56688;50.234;19.292;2023-11-21T05:35:36;97821.10;;;8.39;88.51
69127;BME280;56688;50.234;19.292;2023-11-21T05:38:03;97818.89;;;8.41;88.37
69127;BME280;56688;50.234;19.292;2023-11-21T05:40:30;97818.94;;;8.40;88.37
69127;BME280;56688;50.234;19.292;2023-11-21T05:42:57;97820.56;;;8.40;88.40
69127;BME280;56688;50.234;19.292;2023-11-21T05:45:24;97823.25;;;8.42;88.61
69127;BME280;56688;50.234;19.292;2023-11-21T05:47:51;97829.33;;;8.49;88.79
69127;BME280;56688;50.234;19.292;2023-11-21T05:50:17;97830.49;;;8.56;88.91
69127;BME280;56688;50.234;19.292;2023-11-21T05:52:46;97834.53;;;8.63;88.99
69127;BME280;56688;50.234;19.292;2023-11-21T05:55:14;97837.61;;;8.65;88.68
69127;BME280;56688;50.234;19.292;2023-11-21T05:57:43;97835.13;;;8.71;88.94
69127;BME280;56688;50.234;19.292;2023-11-21T06:00:12;97837.43;;;8.75;88.68
69127;BME280;56688;50.234;19.292;2023-11-21T06:02:49;97834.11;;;8.75;88.30
69127;BME280;56688;50.234;19.292;2023-11-21T06:05:23;97840.13;;;8.71;87.80
69127;BME280;56688;50.234;19.292;2023-11-21T06:07:51;97840.31;;;8.63;87.87
69127;BME280;56688;50.234;19.292;2023-11-21T06:10:21;97847.10;;;8.60;87.94
69127;BME280;56688;50.234;19.292;2023-11-21T06:12:49;97847.35;;;8.62;88.01
69127;BME280;56688;50.234;19.292;2023-11-21T06:15:16;97847.64;;;8.62;87.91
69127;BME280;56688;50.234;19.292;2023-11-21T06:17:46;97852.10;;;8.61;88.28
69127;BME280;56688;50.234;19.292;2023-11-21T06:20:16;97858.54;;;8.64;88.36
69127;BME280;56688;50.234;19.292;2023-11-21T06:22:47;97861.61;;;8.59;87.85
69127;BME280;56688;50.234;19.292;2023-11-21T06:25:14;97861.27;;;8.52;87.79
69127;BME280;56688;50.234;19.292;2023-11-21T06:27:44;97863.92;;;8.47;88.04
69127;BME280;56688;50.234;19.292;2023-11-21T06:30:12;97862.30;;;8.44;88.21
69127;BME280;56688;50.234;19.292;2023-11-21T06:32:41;97861.64;;;8.44;88.51
69127;BME280;56688;50.234;19.292;2023-11-21T06:35:13;97866.38;;;8.43;88.45
69127;BME280;56688;50.234;19.292;2023-11-21T06:37:40;97865.33;;;8.40;88.48
69127;BME280;56688;50.234;19.292;2023-11-21T06:40:07;97870.30;;;8.35;88.71
69127;BME280;56688;50.234;19.292;2023-11-21T06:42:36;97866.41;;;8.33;88.78
69127;BME280;56688;50.234;19.292;2023-11-21T06:45:05;97864.56;;;8.32;88.93
69127;BME280;56688;50.234;19.292;2023-11-21T06:47:32;97869.11;;;8.31;88.95
69127;BME280;56688;50.234;19.292;2023-11-21T06:49:59;97867.89;;;8.33;89.22
69127;BME280;56688;50.234;19.292;2023-11-21T06:52:27;97861.27;;;8.35;89.32
69127;BME280;56688;50.234;19.292;2023-11-21T06:54:54;97866.45;;;8.41;89.50
69127;BME280;56688;50.234;19.292;2023-11-21T06:57:23;97868.17;;;8.42;89.40
69127;BME280;56688;50.234;19.292;2023-11-21T06:59:50;97870.05;;;8.39;89.20
69127;BME280;56688;50.234;19.292;2023-11-21T07:02:17;97875.31;;;8.38;89.27
69127;BME280;56688;50.234;19.292;2023-11-21T07:04:45;97875.70;;;8.36;89.30
69127;BME280;56688;50.234;19.292;2023-11-21T07:07:13;97879.17;;;8.35;89.28
69127;BME280;56688;50.234;19.292;2023-11-21T07:09:40;97878.51;;;8.34;89.32
69127;BME280;56688;50.234;19.292;2023-11-21T07:12:07;97881.19;;;8.33;89.26
69127;BME280;56688;50.234;19.292;2023-11-21T07:14:34;97884.94;;;8.34;89.54
69127;BME280;56688;50.234;19.292;2023-11-21T07:17:02;97885.27;;;8.41;89.85
69127;BME280;56688;50.234;19.292;2023-11-21T07:19:29;97885.93;;;8.44;89.56
69127;BME280;56688;50.234;19.292;2023-11-21T07:21:57;97886.16;;;8.43;89.22
69127;BME280;56688;50.234;19.292;2023-11-21T07:24:24;97886.27;;;8.44;89.24
69127;BME280;56688;50.234;19.292;2023-11-21T07:26:53;97887.31;;;8.44;89.05
69127;BME280;56688;50.234;19.292;2023-11-21T07:29:24;97883.63;;;8.39;88.72
69127;BME280;56688;50.234;19.292;2023-11-21T07:31:53;97888.88;;;8.40;89.06
69127;BME280;56688;50.234;19.292;2023-11-21T07:34:20;97885.96;;;8.48;89.50
69127;BME280;56688;50.234;19.292;2023-11-21T07:36:49;97888.30;;;8.56;89.45
69127;BME280;56688;50.234;19.292;2023-11-21T07:39:16;97891.95;;;8.62;89.27
69127;BME280;56688;50.234;19.292;2023-11-21T07:41:43;97898.29;;;8.64;88.95
69127;BME280;56688;50.234;19.292;2023-11-21T07:44:16;97901.88;;;8.67;88.83
69127;BME280;56688;50.234;19.292;2023-11-21T07:46:44;97901.78;;;8.66;88.48
69127;BME280;56688;50.234;19.292;2023-11-21T07:49:12;97905.12;;;8.63;88.20
69127;BME280;56688;50.234;19.292;2023-11-21T07:51:43;97902.98;;;8.58;88.06
69127;BME280;56688;50.234;19.292;2023-11-21T07:54:11;97906.82;;;8.60;88.21
69127;BME280;56688;50.234;19.292;2023-11-21T07:56:38;97910.83;;;8.59;88.24
69127;BME280;56688;50.234;19.292;2023-11-21T07:59:05;97911.61;;;8.60;88.23
69127;BME280;56688;50.234;19.292;2023-11-21T08:01:32;97914.86;;;8.61;88.12
69127;BME280;56688;50.234;19.292;2023-11-21T08:04:00;97918.92;;;8.62;88.10
69127;BME280;56688;50.234;19.292;2023-11-21T08:06:31;97915.52;;;8.64;88.25
69127;BME280;56688;50.234;19.292;2023-11-21T08:08:58;97918.96;;;8.66;88.02
69127;BME280;56688;50.234;19.292;2023-11-21T08:11:25;97919.06;;;8.66;87.96
69127;BME280;56688;50.234;19.292;2023-11-21T08:13:53;97926.02;;;8.63;87.79
69127;BME280;56688;50.234;19.292;2023-11-21T08:16:21;97928.35;;;8.63;87.93
69127;BME280;56688;50.234;19.292;2023-11-21T08:18:51;97930.42;;;8.66;87.91
69127;BME280;56688;50.234;19.292;2023-11-21T08:21:18;97924.98;;;8.71;87.98
69127;BME280;56688;50.234;19.292;2023-11-21T08:23:46;97924.91;;;8.80;88.38
69127;BME280;56688;50.234;19.292;2023-11-21T08:26:16;97925.56;;;8.93;88.49
69127;BME280;56688;50.234;19.292;2023-11-21T08:28:45;97926.89;;;9.00;87.91
69127;BME280;56688;50.234;19.292;2023-11-21T08:31:14;97931.52;;;9.06;87.95
69127;BME280;56688;50.234;19.292;2023-11-21T08:33:41;97930.77;;;9.10;87.05
69127;BME280;56688;50.234;19.292;2023-11-21T08:36:10;97931.80;;;9.08;86.75
69127;BME280;56688;50.234;19.292;2023-11-21T08:38:39;97935.87;;;9.11;86.67
69127;BME280;56688;50.234;19.292;2023-11-21T08:41:07;97937.17;;;9.21;87.13
69127;BME280;56688;50.234;19.292;2023-11-21T08:43:35;97940.91;;;9.31;86.98
69127;BME280;56688;50.234;19.292;2023-11-21T08:46:02;97939.10;;;9.42;87.00
69127;BME280;56688;50.234;19.292;2023-11-21T08:48:29;97941.40;;;9.49;86.19
69127;BME280;56688;50.234;19.292;2023-11-21T08:50:56;97944.05;;;9.54;85.74
69127;BME280;56688;50.234;19.292;2023-11-21T08:53:23;97948.95;;;9.56;85.07
69127;BME280;56688;50.234;19.292;2023-11-21T08:55:52;97950.34;;;9.49;84.41
69127;BME280;56688;50.234;19.292;2023-11-21T08:58:20;97946.96;;;9.44;84.38
69127;BME280;56688;50.234;19.292;2023-11-21T09:00:48;97949.95;;;9.43;83.85
69127;BME280;56688;50.234;19.292;2023-11-21T09:03:15;97948.89;;;9.40;84.24
69127;BME280;56688;50.234;19.292;2023-11-21T09:05:42;97951.27;;;9.41;84.09
69127;BME280;56688;50.234;19.292;2023-11-21T09:08:09;97950.73;;;9.41;83.99
69127;BME280;56688;50.234;19.292;2023-11-21T09:10:36;97949.54;;;9.38;83.57
69127;BME280;56688;50.234;19.292;2023-11-21T09:13:03;97944.35;;;9.30;83.46
69127;BME280;56688;50.234;19.292;2023-11-21T09:15:30;97941.64;;;9.26;83.33
69127;BME280;56688;50.234;19.292;2023-11-21T09:17:57;97945.48;;;9.24;83.23
69127;BME280;56688;50.234;19.292;2023-11-21T09:20:24;97947.59;;;9.26;83.67
69127;BME280;56688;50.234;19.292;2023-11-21T09:22:51;97948.48;;;9.34;84.22
69127;BME280;56688;50.234;19.292;2023-11-21T09:25:18;97946.39;;;9.40;84.19
69127;BME280;56688;50.234;19.292;2023-11-21T09:27:45;97947.75;;;9.45;84.05
69127;BME280;56688;50.234;19.292;2023-11-21T09:30:13;97945.17;;;9.37;82.86
69127;BME280;56688;50.234;19.292;2023-11-21T09:32:41;97945.39;;;9.33;82.89
69127;BME280;56688;50.234;19.292;2023-11-21T09:35:08;97947.52;;;9.30;82.95
69127;BME280;56688;50.234;19.292;2023-11-21T09:37:35;97945.23;;;9.27;82.63
69127;BME280;56688;50.234;19.292;2023-11-21T09:40:07;97950.66;;;9.25;82.82
69127;BME280;56688;50.234;19.292;2023-11-21T09:42:43;97945.09;;;9.26;82.82
69127;BME280;56688;50.234;19.292;2023-11-21T09:45:18;97947.79;;;9.30;83.60
69127;BME280;56688;50.234;19.292;2023-11-21T09:47:48;97945.66;;;9.32;83.68
69127;BME280;56688;50.234;19.292;2023-11-21T09:50:17;97945.73;;;9.35;83.33
69127;BME280;56688;50.234;19.292;2023-11-21T09:55:35;97944.77;;;9.48;83.50
69127;BME280;56688;50.234;19.292;2023-11-21T09:58:04;97942.08;;;9.63;84.07
69127;BME280;56688;50.234;19.292;2023-11-21T10:00:34;97940.26;;;9.83;84.81
69127;BME280;56688;50.234;19.292;2023-11-21T10:03:01;97939.64;;;9.99;84.35
69127;BME280;56688;50.234;19.292;2023-11-21T10:05:29;97937.48;;;10.03;83.18
69127;BME280;56688;50.234;19.292;2023-11-21T10:08:02;97934.49;;;10.06;82.77
69127;BME280;56688;50.234;19.292;2023-11-21T10:10:32;97940.14;;;10.10;82.26
69127;BME280;56688;50.234;19.292;2023-11-21T10:13:02;97941.21;;;10.18;82.50
69127;BME280;56688;50.234;19.292;2023-11-21T10:15:34;97936.63;;;10.28;82.10
69127;BME280;56688;50.234;19.292;2023-11-21T10:18:03;97941.27;;;10.27;80.76
69127;BME280;56688;50.234;19.292;2023-11-21T10:20:31;97942.73;;;10.23;80.05
69127;BME280;56688;50.234;19.292;2023-11-21T10:23:01;97937.62;;;10.22;80.08
69127;BME280;56688;50.234;19.292;2023-11-21T10:25:30;97941.34;;;10.24;79.18
69127;BME280;56688;50.234;19.292;2023-11-21T10:27:58;97942.13;;;10.14;78.96
69127;BME280;56688;50.234;19.292;2023-11-21T10:30:32;97944.37;;;10.10;79.32
69127;BME280;56688;50.234;19.292;2023-11-21T10:33:00;97939.60;;;10.06;78.98
69127;BME280;56688;50.234;19.292;2023-11-21T10:35:45;97938.89;;;10.06;79.34
69127;BME280;56688;50.234;19.292;2023-11-21T10:38:15;97939.64;;;10.06;79.18
69127;BME280;56688;50.234;19.292;2023-11-21T10:40:44;97934.95;;;10.06;79.40
69127;BME280;56688;50.234;19.292;2023-11-21T10:43:14;97935.09;;;10.05;78.73
69127;BME280;56688;50.234;19.292;2023-11-21T10:45:42;97932.05;;;10.08;79.04
69127;BME280;56688;50.234;19.292;2023-11-21T10:48:12;97933.30;;;10.15;79.31
69127;BME280;56688;50.234;19.292;2023-11-21T10:50:45;97930.23;;;10.19;78.40
69127;BME280;56688;50.234;19.292;2023-11-21T10:53:13;97935.34;;;10.12;77.32
69127;BME280;56688;50.234;19.292;2023-11-21T10:55:41;97931.80;;;9.99;76.91
69127;BME280;56688;50.234;19.292;2023-11-21T10:58:09;97934.98;;;9.95;77.68
69127;BME280;56688;50.234;19.292;2023-11-21T11:00:38;97930.17;;;9.95;77.86
69127;BME280;56688;50.234;19.292;2023-11-21T11:03:07;97932.62;;;9.91;77.58
69127;BME280;56688;50.234;19.292;2023-11-21T11:05:44;97932.14;;;9.84;77.57
69127;BME280;56688;50.234;19.292;2023-11-21T11:08:21;97934.81;;;9.78;77.79
69127;BME280;56688;50.234;19.292;2023-11-21T11:10:54;97936.30;;;9.73;78.23
69127;BME280;56688;50.234;19.292;2023-11-21T11:13:22;97942.08;;;9.65;78.64
69127;BME280;56688;50.234;19.292;2023-11-21T11:15:51;97947.31;;;9.56;78.88
69127;BME280;56688;50.234;19.292;2023-11-21T11:18:22;97946.11;;;9.53;79.55
69127;BME280;56688;50.234;19.292;2023-11-21T11:20:51;97941.93;;;9.54;79.88
69127;BME280;56688;50.234;19.292;2023-11-21T11:29:23;97939.92;;;9.48;79.30
69127;BME280;56688;50.234;19.292;2023-11-21T11:34:50;97948.48;;;9.39;79.82
69127;BME280;56688;50.234;19.292;2023-11-21T11:37:21;97950.91;;;9.47;79.94
69127;BME280;56688;50.234;19.292;2023-11-21T11:39:50;97954.11;;;9.60;79.77
69127;BME280;56688;50.234;19.292;2023-11-21T11:42:18;97954.00;;;9.67;79.96
69127;BME280;56688;50.234;19.292;2023-11-21T11:44:47;97955.73;;;9.77;79.95
69127;BME280;56688;50.234;19.292;2023-11-21T11:47:23;97957.45;;;9.89;79.19
69127;BME280;56688;50.234;19.292;2023-11-21T11:50:08;97958.41;;;9.95;78.34
69127;BME280;56688;50.234;19.292;2023-11-21T11:52:52;97958.04;;;9.98;77.95
69127;BME280;56688;50.234;19.292;2023-11-21T11:55:23;97961.10;;;10.05;78.77
69127;BME280;56688;50.234;19.292;2023-11-21T11:57:53;97962.14;;;10.09;77.83
69127;BME280;56688;50.234;19.292;2023-11-21T12:02:55;97961.84;;;10.13;76.90
69127;BME280;56688;50.234;19.292;2023-11-21T12:05:24;97964.29;;;10.12;76.07
69127;BME280;56688;50.234;19.292;2023-11-21T12:07:55;97966.99;;;10.09;76.25
69127;BME280;56688;50.234;19.292;2023-11-21T12:10:26;97971.02;;;10.11;76.91
69127;BME280;56688;50.234;19.292;2023-11-21T12:15:23;97970.57;;;10.10;77.13
69127;BME280;56688;50.234;19.292;2023-11-21T12:17:51;97973.20;;;10.12;77.03
69127;BME280;56688;50.234;19.292;2023-11-21T12:20:20;97970.39;;;10.13;76.80
69127;BME280;56688;50.234;19.292;2023-11-21T12:22:49;97968.86;;;10.20;77.40
69127;BME280;56688;50.234;19.292;2023-11-21T12:25:20;97966.42;;;10.28;77.37
69127;BME280;56688;50.234;19.292;2023-11-21T12:27:51;97965.23;;;10.33;76.90
69127;BME280;56688;50.234;19.292;2023-11-21T12:30:21;97961.77;;;10.36;77.06
69127;BME280;56688;50.234;19.292;2023-11-21T12:32:51;97964.39;;;10.40;76.52
69127;BME280;56688;50.234;19.292;2023-11-21T12:35:21;97963.36;;;10.44;77.59
69127;BME280;56688;50.234;19.292;2023-11-21T12:37:48;97960.25;;;10.52;78.00
69127;BME280;56688;50.234;19.292;2023-11-21T12:40:16;97963.85;;;10.62;77.72
69127;BME280;56688;50.234;19.292;2023-11-21T12:42:46;97961.16;;;10.67;77.35
69127;BME280;56688;50.234;19.292;2023-11-21T12:47:44;97963.63;;;10.74;77.05
69127;BME280;56688;50.234;19.292;2023-11-21T12:50:12;97965.38;;;10.74;76.88
69127;BME280;56688;50.234;19.292;2023-11-21T12:52:44;97967.04;;;10.70;76.30
69127;BME280;56688;50.234;19.292;2023-11-21T12:55:16;97966.36;;;10.66;76.12
69127;BME280;56688;50.234;19.292;2023-11-21T12:57:44;97963.04;;;10.64;76.66
69127;BME280;56688;50.234;19.292;2023-11-21T13:00:13;97960.80;;;10.62;76.95
69127;BME280;56688;50.234;19.292;2023-11-21T13:02:51;97964.30;;;10.62;77.61
69127;BME280;56688;50.234;19.292;2023-11-21T13:07:52;97969.81;;;10.64;77.93
69127;BME280;56688;50.234;19.292;2023-11-21T13:10:23;97975.06;;;10.59;77.16
69127;BME280;56688;50.234;19.292;2023-11-21T13:12:52;97979.23;;;10.51;77.40
69127;BME280;56688;50.234;19.292;2023-11-21T13:15:20;97977.73;;;10.45;77.29
69127;BME280;56688;50.234;19.292;2023-11-21T13:17:47;97982.11;;;10.32;76.60
69127;BME280;56688;50.234;19.292;2023-11-21T13:20:15;97983.59;;;10.17;75.87
69127;BME280;56688;50.234;19.292;2023-11-21T13:22:46;97985.14;;;9.98;75.20
69127;BME280;56688;50.234;19.292;2023-11-21T13:25:13;97986.20;;;9.78;75.34